createdAt,value
2023-05-18T00:00:35.524Z,2.20
2023-05-18T00:03:20.022Z,2.20
2023-05-18T00:05:49.591Z,2.20
2023-05-18T00:08:17.697Z,1.90
2023-05-18T00:10:45.984Z,2.40
2023-05-18T00:13:14.069Z,2.40
2023-05-18T00:15:44.160Z,2.40
2023-05-18T00:18:12.317Z,2.00
2023-05-18T00:20:40.469Z,2.70
2023-05-18T00:23:10.822Z,2.00
2023-05-18T00:25:38.900Z,2.30
2023-05-18T00:28:07.032Z,2.40
2023-05-18T00:30:35.111Z,2.20
2023-05-18T00:33:03.204Z,2.50
2023-05-18T00:35:31.670Z,1.70
2023-05-18T00:37:59.971Z,1.80
2023-05-18T00:40:29.434Z,1.50
2023-05-18T00:42:57.689Z,2.00
2023-05-18T00:45:26.848Z,2.00
2023-05-18T00:47:56.661Z,1.90
2023-05-18T00:50:25.196Z,1.70
2023-05-18T00:52:53.374Z,1.60
2023-05-18T00:55:22.391Z,2.60
2023-05-18T00:57:50.600Z,1.30
2023-05-18T01:00:20.823Z,2.20
2023-05-18T01:02:51.322Z,2.10
2023-05-18T01:05:22.351Z,2.10
2023-05-18T01:07:50.607Z,1.60
2023-05-18T01:10:20.329Z,1.80
2023-05-18T01:13:04.162Z,2.00
2023-05-18T01:15:39.692Z,2.40
2023-05-18T01:18:25.678Z,2.00
2023-05-18T01:21:00.660Z,1.90
2023-05-18T01:23:59.090Z,1.90
2023-05-18T01:26:37.657Z,2.00
2023-05-18T01:29:11.505Z,2.40
2023-05-18T01:31:40.202Z,1.50
2023-05-18T01:34:08.713Z,2.40
2023-05-18T01:36:37.676Z,2.20
2023-05-18T01:39:05.833Z,1.80
2023-05-18T01:41:39.409Z,1.60
2023-05-18T01:44:19.324Z,1.80
2023-05-18T01:47:12.561Z,1.90
2023-05-18T01:49:52.198Z,1.80
2023-05-18T01:52:43.548Z,2.00
2023-05-18T01:55:14.566Z,1.70
2023-05-18T01:57:45.129Z,1.70
2023-05-18T02:00:19.449Z,2.50
2023-05-18T02:02:50.699Z,1.80
2023-05-18T02:05:19.834Z,2.00
2023-05-18T02:07:49.576Z,1.70
2023-05-18T02:10:17.995Z,1.40
2023-05-18T02:12:49.278Z,2.20
2023-05-18T02:15:18.071Z,1.50
2023-05-18T02:17:46.608Z,1.50
2023-05-18T02:20:18.581Z,2.40
2023-05-18T02:22:46.897Z,1.90
2023-05-18T02:25:15.099Z,1.90
2023-05-18T02:27:43.329Z,1.70
2023-05-18T02:30:14.430Z,1.70
2023-05-18T02:32:47.205Z,1.50
2023-05-18T02:35:17.622Z,2.10
2023-05-18T02:37:47.548Z,2.00
2023-05-18T02:40:19.128Z,2.00
2023-05-18T02:42:47.165Z,2.00
2023-05-18T02:45:16.088Z,1.40
2023-05-18T02:47:44.911Z,2.10
2023-05-18T02:50:13.184Z,2.20
2023-05-18T02:52:41.882Z,1.60
2023-05-18T02:55:10.958Z,1.90
2023-05-18T02:57:57.066Z,1.80
2023-05-18T03:00:32.060Z,2.10
2023-05-18T03:03:01.050Z,2.00
2023-05-18T03:05:29.885Z,2.60
2023-05-18T03:07:58.461Z,2.40
2023-05-18T03:10:26.601Z,1.80
2023-05-18T03:12:54.680Z,1.50
2023-05-18T03:15:23.401Z,2.10
2023-05-18T03:17:51.958Z,2.20
2023-05-18T03:20:21.860Z,2.00
2023-05-18T03:22:50.072Z,1.80
2023-05-18T03:25:19.552Z,1.90
2023-05-18T03:27:48.360Z,2.40
2023-05-18T03:30:16.588Z,2.20
2023-05-18T03:32:47.782Z,1.90
2023-05-18T03:35:16.401Z,1.70
2023-05-18T03:37:45.724Z,2.00
2023-05-18T03:40:15.684Z,1.60
2023-05-18T03:42:44.636Z,2.60
2023-05-18T03:45:13.802Z,1.50
2023-05-18T03:47:42.798Z,3.10
2023-05-18T03:50:11.188Z,2.40
2023-05-18T03:52:40.169Z,2.20
2023-05-18T03:55:09.014Z,2.20
2023-05-18T03:57:37.402Z,2.00
2023-05-18T04:04:54.047Z,2.50
2023-05-18T04:07:22.570Z,2.20
2023-05-18T04:09:52.224Z,2.60
2023-05-18T04:12:21.594Z,2.90
2023-05-18T04:14:50.110Z,2.10
2023-05-18T04:17:22.386Z,2.30
2023-05-18T04:19:50.814Z,2.60
2023-05-18T04:22:18.852Z,2.20
2023-05-18T04:24:47.660Z,2.30
2023-05-18T04:27:15.902Z,2.40
2023-05-18T04:29:44.312Z,2.30
2023-05-18T04:34:37.972Z,2.60
2023-05-18T04:37:06.909Z,2.60
2023-05-18T04:39:35.289Z,2.20
2023-05-18T04:42:08.609Z,2.40
2023-05-18T04:44:38.593Z,2.30
2023-05-18T04:47:08.651Z,2.10
2023-05-18T04:49:38.694Z,2.40
2023-05-18T04:52:09.101Z,2.10
2023-05-18T04:54:41.089Z,2.30
2023-05-18T04:57:09.558Z,2.10
2023-05-18T04:59:37.578Z,2.40
2023-05-18T05:02:06.384Z,1.80
2023-05-18T05:04:34.754Z,2.00
2023-05-18T05:07:04.071Z,2.30
2023-05-18T05:09:32.299Z,1.80
2023-05-18T05:12:00.421Z,1.70
2023-05-18T05:14:28.414Z,2.20
2023-05-18T05:16:56.384Z,1.90
2023-05-18T05:19:24.717Z,1.60
2023-05-18T05:21:53.083Z,1.70
2023-05-18T05:24:21.421Z,2.10
2023-05-18T05:26:49.700Z,1.90
2023-05-18T05:29:20.020Z,2.00
2023-05-18T05:31:48.310Z,2.10
2023-05-18T05:34:16.639Z,2.00
2023-05-18T05:36:44.673Z,2.90
2023-05-18T05:39:13.667Z,2.00
2023-05-18T05:41:41.928Z,1.50
2023-05-18T05:44:10.070Z,1.50
2023-05-18T05:46:38.244Z,1.80
2023-05-18T05:49:06.731Z,2.20
2023-05-18T05:51:35.875Z,1.70
2023-05-18T05:54:04.345Z,2.50
2023-05-18T05:56:32.561Z,1.60
2023-05-18T05:59:01.042Z,1.60
2023-05-18T06:01:29.647Z,1.40
2023-05-18T06:03:58.162Z,1.90
2023-05-18T06:06:26.144Z,1.60
2023-05-18T06:08:54.209Z,1.20
2023-05-18T06:11:22.857Z,1.40
2023-05-18T06:13:52.462Z,1.70
2023-05-18T06:16:20.683Z,1.60
2023-05-18T06:18:49.196Z,1.50
2023-05-18T06:21:17.615Z,1.70
2023-05-18T06:23:46.377Z,2.10
2023-05-18T06:26:53.803Z,1.50
2023-05-18T06:29:50.928Z,1.70
2023-05-18T06:32:37.560Z,1.70
2023-05-18T06:35:07.386Z,1.10
2023-05-18T06:37:36.910Z,1.10
2023-05-18T06:40:07.373Z,1.10
2023-05-18T06:42:35.617Z,1.40
2023-05-18T06:45:23.334Z,1.10
2023-05-18T06:47:54.661Z,1.30
2023-05-18T06:50:23.179Z,1.50
2023-05-18T06:52:51.614Z,1.20
2023-05-18T06:55:20.344Z,1.20
2023-05-18T06:57:48.492Z,1.30
2023-05-18T07:00:17.209Z,1.50
2023-05-18T07:02:45.909Z,1.20
2023-05-18T07:05:15.114Z,1.30
2023-05-18T07:07:43.267Z,1.80
2023-05-18T07:10:11.667Z,1.60
2023-05-18T07:12:39.917Z,1.10
2023-05-18T07:15:08.238Z,1.10
2023-05-18T07:17:36.561Z,1.30
2023-05-18T07:20:09.021Z,1.30
2023-05-18T07:22:37.051Z,1.00
2023-05-18T07:25:05.723Z,0.80
2023-05-18T07:27:34.838Z,0.80
2023-05-18T07:30:03.056Z,1.00
2023-05-18T07:32:31.120Z,1.10
2023-05-18T07:34:59.515Z,0.80
2023-05-18T07:37:27.439Z,0.90
2023-05-18T07:39:55.582Z,0.60
2023-05-18T07:42:23.669Z,0.80
2023-05-18T07:44:52.339Z,0.90
2023-05-18T07:47:21.834Z,1.40
2023-05-18T07:49:49.938Z,0.60
2023-05-18T07:52:18.031Z,0.90
2023-05-18T07:54:46.058Z,0.70
2023-05-18T07:57:14.513Z,0.90
2023-05-18T07:59:42.867Z,0.40
2023-05-18T08:02:11.354Z,0.60
2023-05-18T08:04:39.572Z,0.40
2023-05-18T08:07:09.144Z,1.10
2023-05-18T08:09:37.412Z,0.60
2023-05-18T08:12:06.301Z,1.00
2023-05-18T08:14:34.334Z,0.60
2023-05-18T08:17:04.920Z,0.60
2023-05-18T08:19:33.063Z,0.80
2023-05-18T08:22:01.169Z,0.70
2023-05-18T08:24:29.184Z,0.60
2023-05-18T08:26:57.585Z,0.50
2023-05-18T08:29:25.827Z,0.70
2023-05-18T08:31:54.009Z,0.40
2023-05-18T08:34:22.710Z,0.70
2023-05-18T08:36:50.806Z,0.90
2023-05-18T08:39:19.415Z,0.60
2023-05-18T08:42:03.934Z,0.80
2023-05-18T08:44:41.116Z,0.60
2023-05-18T08:47:11.519Z,0.80
2023-05-18T08:49:42.383Z,0.60
2023-05-18T08:52:18.005Z,0.80
2023-05-18T08:54:48.730Z,0.70
2023-05-18T08:57:18.510Z,0.70
2023-05-18T08:59:49.433Z,0.70
2023-05-18T09:02:18.633Z,0.70
2023-05-18T09:04:48.322Z,0.60
2023-05-18T09:07:18.416Z,0.70
2023-05-18T09:09:47.779Z,0.70
2023-05-18T09:12:20.181Z,0.70
2023-05-18T09:14:49.250Z,0.60
2023-05-18T09:17:17.385Z,0.90
2023-05-18T09:19:46.288Z,0.50
2023-05-18T09:22:15.332Z,0.90
2023-05-18T09:24:43.985Z,0.60
2023-05-18T09:27:12.197Z,0.70
2023-05-18T09:29:54.350Z,0.80
2023-05-18T09:34:51.430Z,1.00
2023-05-18T09:37:21.421Z,0.50
2023-05-18T09:40:04.844Z,0.80
2023-05-18T09:42:39.846Z,0.70
2023-05-18T09:45:24.268Z,0.70
2023-05-18T09:47:53.714Z,0.80
2023-05-18T09:50:22.754Z,0.70
2023-05-18T09:52:50.938Z,0.80
2023-05-18T09:55:20.531Z,1.10
2023-05-18T09:57:50.763Z,1.00
2023-05-18T10:00:20.716Z,0.80
2023-05-18T10:02:52.963Z,0.30
2023-05-18T10:05:35.538Z,0.80
2023-05-18T10:08:04.336Z,1.00
2023-05-18T10:10:32.649Z,0.80
2023-05-18T10:13:01.641Z,1.30
2023-05-18T10:15:30.199Z,0.70
2023-05-18T10:18:01.313Z,0.80
2023-05-18T10:20:29.767Z,0.70
2023-05-18T10:23:00.943Z,0.90
2023-05-18T10:25:31.003Z,0.70
2023-05-18T10:28:06.398Z,0.70
2023-05-18T10:30:35.366Z,0.70
2023-05-18T10:33:11.268Z,0.90
2023-05-18T10:35:45.574Z,1.00
2023-05-18T10:38:15.196Z,0.80
2023-05-18T10:40:45.102Z,1.00
2023-05-18T10:43:14.769Z,0.80
2023-05-18T10:45:47.310Z,0.50
2023-05-18T10:48:16.432Z,0.60
2023-05-18T10:50:44.603Z,0.50
2023-05-18T10:53:13.086Z,0.90
2023-05-18T10:55:41.186Z,0.70
2023-05-18T10:58:14.336Z,0.80
2023-05-18T11:04:40.838Z,1.00
2023-05-18T11:07:13.675Z,0.80
2023-05-18T11:09:43.127Z,0.70
2023-05-18T11:12:13.200Z,0.70
2023-05-18T11:14:53.005Z,0.70
2023-05-18T11:17:26.786Z,0.90
2023-05-18T11:20:08.014Z,0.80
2023-05-18T11:22:59.190Z,0.60
2023-05-18T11:25:27.226Z,1.30
2023-05-18T11:28:02.348Z,0.80
2023-05-18T11:30:45.164Z,1.20
2023-05-18T11:33:16.064Z,1.00
2023-05-18T11:36:01.071Z,0.70
2023-05-18T11:38:55.291Z,1.10
2023-05-18T11:41:35.775Z,0.90
2023-05-18T11:44:14.898Z,1.00
2023-05-18T11:46:53.550Z,0.70
2023-05-18T11:49:25.072Z,0.90
2023-05-18T11:52:02.709Z,0.70
2023-05-18T11:54:44.077Z,0.90
2023-05-18T11:57:15.280Z,0.60
2023-05-18T11:59:45.799Z,0.70
2023-05-18T12:02:21.718Z,0.60
2023-05-18T12:04:53.170Z,0.60
2023-05-18T12:07:22.694Z,0.70
2023-05-18T12:09:51.283Z,0.50
2023-05-18T12:12:20.410Z,0.60
2023-05-18T12:14:55.658Z,0.50
2023-05-18T12:17:24.721Z,0.60
2023-05-18T12:19:53.302Z,0.50
2023-05-18T12:22:21.505Z,0.60
2023-05-18T12:24:51.547Z,0.40
2023-05-18T12:27:23.030Z,0.50
2023-05-18T12:29:51.424Z,0.40
2023-05-18T12:32:19.539Z,0.90
2023-05-18T12:34:47.522Z,0.30
2023-05-18T12:37:15.861Z,0.50
2023-05-18T12:39:44.028Z,0.50
2023-05-18T12:42:14.427Z,0.60
2023-05-18T12:44:44.864Z,0.80
2023-05-18T12:47:14.113Z,0.60
2023-05-18T12:49:47.867Z,0.70
2023-05-18T12:52:16.814Z,0.40
2023-05-18T12:54:58.507Z,0.40
2023-05-18T12:57:31.266Z,0.60
2023-05-18T13:00:01.048Z,1.20
2023-05-18T13:02:51.788Z,0.40
2023-05-18T13:05:24.405Z,0.30
2023-05-18T13:07:56.094Z,0.40
2023-05-18T13:10:24.326Z,0.60
2023-05-18T13:12:52.804Z,0.50
2023-05-18T13:18:15.290Z,0.40
2023-05-18T13:20:50.854Z,0.70
2023-05-18T13:23:24.932Z,1.30
2023-05-18T13:25:53.090Z,0.40
2023-05-18T13:28:21.982Z,0.60
2023-05-18T13:30:50.677Z,0.30
2023-05-18T13:33:19.617Z,0.60
2023-05-18T13:35:49.849Z,0.60
2023-05-18T13:38:18.083Z,0.60
2023-05-18T13:40:47.013Z,0.80
2023-05-18T13:43:15.111Z,0.80
2023-05-18T13:45:43.662Z,0.70
2023-05-18T13:48:11.839Z,0.70
2023-05-18T13:50:40.163Z,0.70
2023-05-18T13:53:08.654Z,0.60
2023-05-18T13:55:37.508Z,0.70
2023-05-18T13:58:06.480Z,0.70
2023-05-18T14:00:34.950Z,0.70
2023-05-18T14:03:03.223Z,0.60
2023-05-18T14:05:31.375Z,0.70
2023-05-18T14:07:59.567Z,0.60
2023-05-18T14:10:27.610Z,0.60
2023-05-18T14:12:55.777Z,0.40
2023-05-18T14:15:24.017Z,0.60
2023-05-18T14:17:52.153Z,0.80
2023-05-18T14:20:20.292Z,0.50
2023-05-18T14:22:48.444Z,0.70
2023-05-18T14:25:17.053Z,0.60
2023-05-18T14:27:45.766Z,0.40
2023-05-18T14:30:14.298Z,0.40
2023-05-18T14:32:42.373Z,0.60
2023-05-18T14:35:10.541Z,0.70
2023-05-18T14:37:38.759Z,0.60
2023-05-18T14:40:07.877Z,0.70
2023-05-18T14:42:37.417Z,0.60
2023-05-18T14:45:06.067Z,0.70
2023-05-18T14:47:34.289Z,0.60
2023-05-18T14:50:02.632Z,0.50
2023-05-18T14:52:30.681Z,0.70
2023-05-18T14:54:58.752Z,0.70
2023-05-18T14:57:27.132Z,0.70
2023-05-18T14:59:55.196Z,0.60
2023-05-18T15:02:23.235Z,0.60
2023-05-18T15:04:51.360Z,0.50
2023-05-18T15:07:20.282Z,0.90
2023-05-18T15:09:48.492Z,0.50
2023-05-18T15:12:17.849Z,0.80
2023-05-18T15:14:45.901Z,1.20
2023-05-18T15:17:15.252Z,1.10
2023-05-18T15:20:09.523Z,0.90
2023-05-18T15:22:38.495Z,1.10
2023-05-18T15:25:07.613Z,1.00
2023-05-18T15:27:36.955Z,0.90
2023-05-18T15:30:11.558Z,1.30
2023-05-18T15:32:45.746Z,1.10
2023-05-18T15:35:16.201Z,1.00
2023-05-18T15:37:44.504Z,1.20
2023-05-18T15:40:12.557Z,0.90
2023-05-18T15:42:40.618Z,0.80
2023-05-18T15:45:09.207Z,0.70
2023-05-18T15:47:37.276Z,0.80
2023-05-18T15:50:06.477Z,0.60
2023-05-18T15:52:34.813Z,0.70
2023-05-18T15:55:02.860Z,0.60
2023-05-18T15:57:32.353Z,0.90
2023-05-18T16:00:00.440Z,0.80
2023-05-18T16:02:30.585Z,0.60
2023-05-18T16:04:59.632Z,0.50
2023-05-18T16:07:27.739Z,0.50
2023-05-18T16:09:56.075Z,0.80
2023-05-18T16:12:24.165Z,0.70
2023-05-18T16:14:52.182Z,0.50
2023-05-18T16:17:20.365Z,0.40
2023-05-18T16:19:48.436Z,0.70
2023-05-18T16:22:16.697Z,0.90
2023-05-18T16:24:45.133Z,0.50
2023-05-18T16:27:13.284Z,0.70
2023-05-18T16:29:43.213Z,0.80
2023-05-18T16:32:11.620Z,1.00
2023-05-18T16:34:39.676Z,0.50
2023-05-18T16:37:08.942Z,0.60
2023-05-18T16:39:37.124Z,0.70
2023-05-18T16:42:05.758Z,0.80
2023-05-18T16:44:35.839Z,0.80
2023-05-18T16:47:03.875Z,0.70
2023-05-18T16:49:32.934Z,0.60
2023-05-18T16:52:01.336Z,0.90
2023-05-18T16:54:29.361Z,0.40
2023-05-18T16:56:57.368Z,0.90
2023-05-18T16:59:25.656Z,0.60
2023-05-18T17:01:53.695Z,0.70
2023-05-18T17:04:21.857Z,0.60
2023-05-18T17:06:49.899Z,0.80
2023-05-18T17:09:20.568Z,0.70
2023-05-18T17:11:48.903Z,0.80
2023-05-18T17:14:18.562Z,0.70
2023-05-18T17:16:47.308Z,0.70
2023-05-18T17:19:15.336Z,0.60
2023-05-18T17:21:43.328Z,0.80
2023-05-18T17:24:11.302Z,0.70
2023-05-18T17:26:39.305Z,0.80
2023-05-18T17:29:07.450Z,1.00
2023-05-18T17:31:35.657Z,0.80
2023-05-18T17:34:03.822Z,1.70
2023-05-18T17:36:31.778Z,1.00
2023-05-18T17:38:59.761Z,0.80
2023-05-18T17:41:27.728Z,1.00
2023-05-18T17:43:55.757Z,1.00
2023-05-18T17:46:23.799Z,1.10
2023-05-18T17:49:17.335Z,1.10
2023-05-18T17:51:49.336Z,1.00
2023-05-18T17:54:17.344Z,1.20
2023-05-18T17:56:45.570Z,1.20
2023-05-18T17:59:13.622Z,1.60
2023-05-18T18:01:43.255Z,1.60
2023-05-18T18:04:11.386Z,1.50
2023-05-18T18:06:39.525Z,1.80
2023-05-18T18:09:07.674Z,1.60
2023-05-18T18:11:35.973Z,2.40
2023-05-18T18:14:04.142Z,7.10
2023-05-18T18:16:32.325Z,3.80
2023-05-18T18:19:00.623Z,1.70
2023-05-18T18:21:28.613Z,6.40
2023-05-18T18:23:56.692Z,5.00
2023-05-18T18:26:24.905Z,3.30
2023-05-18T18:28:53.018Z,2.30
2023-05-18T18:31:21.187Z,4.30
2023-05-18T18:33:52.037Z,4.60
2023-05-18T18:36:20.889Z,5.90
2023-05-18T18:38:48.918Z,5.10
2023-05-18T18:41:20.082Z,3.80
2023-05-18T18:43:47.982Z,4.40
2023-05-18T18:46:16.118Z,3.10
2023-05-18T18:48:47.660Z,3.30
2023-05-18T18:51:15.711Z,3.30
2023-05-18T18:53:43.718Z,2.80
2023-05-18T18:56:11.835Z,3.70
2023-05-18T18:58:39.936Z,3.60
2023-05-18T19:04:38.302Z,2.90
2023-05-18T19:07:06.327Z,3.10
2023-05-18T19:09:36.243Z,3.90
2023-05-18T19:12:04.824Z,3.70
2023-05-18T19:14:33.000Z,4.00
2023-05-18T19:17:01.078Z,3.60
2023-05-18T19:19:32.540Z,3.30
2023-05-18T19:22:00.805Z,3.20
2023-05-18T19:24:29.134Z,3.80
2023-05-18T19:26:57.273Z,4.20
2023-05-18T19:29:25.532Z,3.40
2023-05-18T19:31:55.288Z,4.00
2023-05-18T19:34:24.304Z,3.20
2023-05-18T19:36:52.696Z,3.40
2023-05-18T19:39:20.997Z,3.40
2023-05-18T19:41:49.080Z,3.40
2023-05-18T19:44:17.174Z,3.30
2023-05-18T19:46:45.544Z,3.00
2023-05-18T19:49:13.575Z,3.10
2023-05-18T19:51:41.532Z,3.30
2023-05-18T19:54:09.571Z,2.70
2023-05-18T19:56:37.550Z,3.20
2023-05-18T19:59:05.725Z,3.20
2023-05-18T20:01:35.251Z,2.80
2023-05-18T20:04:04.012Z,2.80
2023-05-18T20:06:33.910Z,2.80
2023-05-18T20:09:01.895Z,3.00
2023-05-18T20:11:56.250Z,2.80
2023-05-18T20:14:24.399Z,3.70
2023-05-18T20:16:52.859Z,3.00
2023-05-18T20:19:22.232Z,4.00
2023-05-18T20:21:51.185Z,3.60
2023-05-18T20:24:19.179Z,3.70
2023-05-18T20:26:47.236Z,3.70
2023-05-18T20:29:15.416Z,4.30
2023-05-18T20:31:43.324Z,4.20
2023-05-18T20:34:11.463Z,4.00
2023-05-18T20:36:39.365Z,4.40
2023-05-18T20:39:07.501Z,4.60
2023-05-18T20:41:40.022Z,4.70
2023-05-18T20:44:11.642Z,5.00
2023-05-18T20:46:42.540Z,4.90
2023-05-18T20:49:12.998Z,6.40
2023-05-18T20:51:41.052Z,7.00
2023-05-18T20:54:08.969Z,6.40
2023-05-18T20:56:37.076Z,6.40
2023-05-18T20:59:06.481Z,5.90
2023-05-18T21:01:39.310Z,7.00
2023-05-18T21:04:09.692Z,7.70
2023-05-18T21:06:41.000Z,7.20
2023-05-18T21:09:09.494Z,6.50
2023-05-18T21:11:37.614Z,7.00
2023-05-18T21:14:05.720Z,6.60
2023-05-18T21:16:34.382Z,7.10
2023-05-18T21:19:02.566Z,6.60
2023-05-18T21:21:31.881Z,7.10
2023-05-18T21:23:59.910Z,7.10
2023-05-18T21:26:28.294Z,7.20
2023-05-18T21:28:56.265Z,6.90
2023-05-18T21:31:25.149Z,7.70
2023-05-18T21:33:53.237Z,8.00
2023-05-18T21:36:34.438Z,7.50
2023-05-18T21:39:04.685Z,7.20
2023-05-18T21:41:35.375Z,7.90
2023-05-18T21:44:03.473Z,7.50
2023-05-18T21:46:31.637Z,7.90
2023-05-18T21:49:01.676Z,7.80
2023-05-18T21:51:31.998Z,6.90
2023-05-18T21:54:01.444Z,7.60
2023-05-18T21:56:29.995Z,7.40
2023-05-18T21:58:57.988Z,7.20
2023-05-18T22:01:26.441Z,7.90
2023-05-18T22:03:54.405Z,7.50
2023-05-18T22:06:22.810Z,7.30
2023-05-18T22:08:51.564Z,7.50
2023-05-18T22:11:20.216Z,7.20
2023-05-18T22:13:48.233Z,7.60
2023-05-18T22:16:16.382Z,8.80
2023-05-18T22:18:44.360Z,8.00
2023-05-18T22:21:12.342Z,7.90
2023-05-18T22:23:40.485Z,7.70
2023-05-18T22:26:08.445Z,7.50
2023-05-18T22:28:36.497Z,7.50
2023-05-18T22:31:04.737Z,7.40
2023-05-18T22:33:32.670Z,6.60
2023-05-18T22:36:01.048Z,6.50
2023-05-18T22:38:28.999Z,7.30
2023-05-18T22:40:57.064Z,6.80
2023-05-18T22:43:26.085Z,6.20
2023-05-18T22:45:54.110Z,6.40
2023-05-18T22:48:22.237Z,6.20
2023-05-18T22:50:50.438Z,6.50
2023-05-18T22:53:18.698Z,5.70
2023-05-18T22:55:47.146Z,4.90
2023-05-18T22:58:15.201Z,4.50
2023-05-18T23:00:43.143Z,4.20
2023-05-18T23:03:11.173Z,3.80
2023-05-18T23:05:41.319Z,3.60
2023-05-18T23:08:10.279Z,3.40
2023-05-18T23:10:38.352Z,3.00
2023-05-18T23:13:06.460Z,2.70
2023-05-18T23:15:34.433Z,3.10
2023-05-18T23:18:02.790Z,2.80
2023-05-18T23:20:34.574Z,2.80
2023-05-18T23:23:02.569Z,2.60
2023-05-18T23:25:30.804Z,2.40
2023-05-18T23:27:58.871Z,2.70
2023-05-18T23:30:27.125Z,2.60
2023-05-18T23:32:56.720Z,2.70
2023-05-18T23:35:25.496Z,2.70
2023-05-18T23:37:55.915Z,2.60
2023-05-18T23:40:24.886Z,2.50
2023-05-18T23:42:53.092Z,2.20
2023-05-18T23:45:22.086Z,2.40
2023-05-18T23:47:50.343Z,2.70
2023-05-18T23:50:18.701Z,2.70
2023-05-18T23:52:47.251Z,2.60
2023-05-18T23:55:15.628Z,2.70
2023-05-18T23:57:43.767Z,2.50
